createdAt,value
2018-09-21T00:00:39.033Z,15.70
2018-09-21T00:03:13.988Z,15.70
2018-09-21T00:05:49.061Z,15.60
2018-09-21T00:08:23.857Z,15.60
2018-09-21T00:10:58.469Z,15.60
2018-09-21T00:13:33.017Z,15.50
2018-09-21T00:16:07.729Z,15.50
2018-09-21T00:18:42.683Z,15.50
2018-09-21T00:21:17.550Z,15.50
2018-09-21T00:23:51.599Z,15.50
2018-09-21T00:26:26.273Z,15.50
2018-09-21T00:29:01.176Z,15.50
2018-09-21T00:31:35.589Z,15.50
2018-09-21T00:34:10.695Z,15.40
2018-09-21T00:36:46.054Z,15.40
2018-09-21T00:39:20.263Z,15.40
2018-09-21T00:41:54.936Z,15.40
2018-09-21T00:44:30.025Z,15.40
2018-09-21T00:47:04.880Z,15.40
2018-09-21T00:49:39.689Z,15.40
2018-09-21T00:52:14.195Z,15.30
2018-09-21T00:54:49.153Z,15.30
2018-09-21T00:57:24.166Z,15.30
2018-09-21T00:59:58.741Z,15.30
2018-09-21T01:02:33.420Z,15.30
2018-09-21T01:05:07.901Z,15.30
2018-09-21T01:07:42.973Z,15.30
2018-09-21T01:10:18.064Z,15.30
2018-09-21T01:12:52.275Z,15.20
2018-09-21T01:15:27.041Z,15.20
2018-09-21T01:18:01.976Z,15.20
2018-09-21T01:20:37.010Z,15.20
2018-09-21T01:23:12.077Z,15.10
2018-09-21T01:25:46.517Z,15.10
2018-09-21T01:28:21.184Z,15.10
2018-09-21T01:30:55.897Z,15.10
2018-09-21T01:33:31.155Z,15.10
2018-09-21T01:36:05.395Z,15.00
2018-09-21T01:38:39.955Z,15.00
2018-09-21T01:41:14.572Z,15.00
2018-09-21T01:43:49.113Z,15.00
2018-09-21T01:46:24.045Z,14.90
2018-09-21T01:48:58.264Z,14.90
2018-09-21T01:51:32.910Z,14.90
2018-09-21T01:54:08.158Z,14.90
2018-09-21T01:56:42.473Z,14.90
2018-09-21T01:59:16.958Z,14.90
2018-09-21T02:01:51.532Z,14.90
2018-09-21T02:04:32.092Z,14.80
2018-09-21T02:07:09.249Z,14.80
2018-09-21T02:09:44.097Z,14.80
2018-09-21T02:12:18.244Z,14.80
2018-09-21T02:14:53.314Z,14.80
2018-09-21T02:17:27.654Z,14.80
2018-09-21T02:20:02.153Z,14.70
2018-09-21T02:22:37.686Z,14.70
2018-09-21T02:25:12.733Z,14.70
2018-09-21T02:27:47.345Z,14.70
2018-09-21T02:30:22.031Z,14.70
2018-09-21T02:32:56.665Z,14.60
2018-09-21T02:35:31.342Z,14.60
2018-09-21T02:38:06.110Z,14.60
2018-09-21T02:40:40.825Z,14.60
2018-09-21T02:43:15.605Z,14.60
2018-09-21T02:45:49.970Z,14.50
2018-09-21T02:48:24.781Z,14.50
2018-09-21T02:50:59.212Z,14.50
2018-09-21T02:53:33.853Z,14.50
2018-09-21T02:56:08.503Z,14.40
2018-09-21T02:58:43.582Z,14.50
2018-09-21T03:01:18.029Z,14.40
2018-09-21T03:03:52.532Z,14.40
2018-09-21T03:06:27.632Z,14.40
2018-09-21T03:09:01.848Z,14.30
2018-09-21T03:11:36.763Z,14.30
2018-09-21T03:14:11.432Z,14.30
2018-09-21T03:16:45.940Z,14.30
2018-09-21T03:19:20.548Z,14.30
2018-09-21T03:21:55.136Z,14.20
2018-09-21T03:24:30.127Z,14.20
2018-09-21T03:27:04.981Z,14.20
2018-09-21T03:29:39.766Z,14.20
2018-09-21T03:32:14.320Z,14.20
2018-09-21T03:34:48.573Z,14.20
2018-09-21T03:37:23.237Z,14.20
2018-09-21T03:39:57.804Z,14.20
2018-09-21T03:42:32.712Z,14.20
2018-09-21T03:45:07.040Z,14.10
2018-09-21T03:47:41.724Z,14.10
2018-09-21T03:50:16.407Z,14.10
2018-09-21T03:52:51.096Z,14.10
2018-09-21T03:55:25.971Z,14.10
2018-09-21T03:58:00.438Z,14.10
2018-09-21T04:00:35.194Z,14.10
2018-09-21T04:03:10.189Z,14.00
2018-09-21T04:05:44.509Z,14.00
2018-09-21T04:08:19.087Z,14.00
2018-09-21T04:10:53.517Z,14.00
2018-09-21T04:13:28.190Z,14.00
2018-09-21T04:16:02.729Z,14.00
2018-09-21T04:18:37.296Z,14.00
2018-09-21T04:21:11.818Z,13.90
2018-09-21T04:23:46.701Z,14.00
2018-09-21T04:26:21.436Z,14.00
2018-09-21T04:28:56.121Z,14.00
2018-09-21T04:31:30.982Z,14.00
2018-09-21T04:34:05.654Z,14.00
2018-09-21T04:36:40.485Z,14.00
2018-09-21T04:39:15.049Z,14.00
2018-09-21T04:41:49.773Z,14.00
2018-09-21T04:44:24.483Z,14.00
2018-09-21T04:46:58.919Z,14.00
2018-09-21T04:49:33.544Z,14.10
2018-09-21T04:52:08.174Z,14.10
2018-09-21T04:54:42.773Z,14.10
2018-09-21T04:57:17.385Z,14.10
2018-09-21T04:59:51.937Z,14.10
2018-09-21T05:02:26.814Z,14.10
2018-09-21T05:05:01.533Z,14.10
2018-09-21T05:07:36.016Z,14.10
2018-09-21T05:10:10.560Z,14.10
2018-09-21T05:12:46.034Z,14.20
2018-09-21T05:15:21.021Z,14.20
2018-09-21T05:17:55.532Z,14.20
2018-09-21T05:20:30.880Z,14.30
2018-09-21T05:23:05.806Z,14.40
2018-09-21T05:25:40.348Z,14.50
2018-09-21T05:28:15.220Z,14.60
2018-09-21T05:30:49.945Z,14.60
2018-09-21T05:33:25.015Z,14.60
2018-09-21T05:35:59.629Z,14.70
2018-09-21T05:38:34.349Z,14.80
2018-09-21T05:41:09.373Z,14.80
2018-09-21T05:43:44.028Z,14.90
2018-09-21T05:46:19.046Z,14.90
2018-09-21T05:48:53.605Z,15.00
2018-09-21T05:51:28.215Z,15.10
2018-09-21T05:54:02.977Z,15.20
2018-09-21T05:56:38.090Z,15.30
2018-09-21T05:59:13.184Z,15.30
2018-09-21T06:01:47.801Z,15.50
2018-09-21T06:04:22.468Z,15.60
2018-09-21T06:06:56.939Z,15.70
2018-09-21T06:09:31.663Z,15.90
2018-09-21T06:12:06.590Z,16.00
2018-09-21T06:14:41.014Z,16.20
2018-09-21T06:17:15.672Z,16.30
2018-09-21T06:19:50.474Z,16.40
2018-09-21T06:22:24.864Z,16.60
2018-09-21T06:24:59.510Z,16.90
2018-09-21T06:27:34.044Z,17.10
2018-09-21T06:30:09.460Z,17.40
2018-09-21T06:32:44.274Z,17.60
2018-09-21T06:35:19.034Z,17.90
2018-09-21T06:37:53.769Z,18.20
2018-09-21T06:49:52.968Z,19.10
2018-09-21T06:52:27.513Z,19.30
2018-09-21T06:55:07.457Z,19.50
2018-09-21T06:57:42.533Z,19.70
2018-09-21T07:00:17.586Z,19.90
2018-09-21T07:02:51.885Z,20.00
2018-09-21T07:05:26.809Z,20.20
2018-09-21T07:08:01.448Z,20.40
2018-09-21T07:10:36.082Z,20.60
2018-09-21T07:13:10.800Z,20.80
2018-09-21T07:15:45.994Z,21.00
2018-09-21T07:18:20.273Z,21.10
2018-09-21T07:20:55.281Z,21.30
2018-09-21T07:23:29.584Z,21.60
2018-09-21T07:26:04.549Z,21.80
2018-09-21T07:28:39.394Z,22.00
2018-09-21T07:31:14.628Z,22.20
2018-09-21T07:33:48.846Z,22.40
2018-09-21T07:36:24.026Z,22.70
2018-09-21T07:38:58.862Z,22.90
2018-09-21T07:41:33.789Z,23.20
2018-09-21T07:44:08.573Z,23.40
2018-09-21T07:46:43.421Z,23.60
2018-09-21T07:49:18.245Z,23.90
2018-09-21T07:51:53.072Z,24.00
2018-09-21T07:54:28.118Z,24.30
2018-09-21T07:57:02.718Z,24.40
2018-09-21T07:59:37.766Z,24.50
2018-09-21T08:02:12.221Z,24.70
2018-09-21T08:04:47.243Z,24.80
2018-09-21T08:07:22.101Z,24.90
2018-09-21T08:09:56.907Z,25.10
2018-09-21T08:12:31.672Z,25.20
2018-09-21T08:15:06.741Z,25.30
2018-09-21T08:17:41.394Z,25.50
2018-09-21T08:20:16.463Z,25.50
2018-09-21T08:22:50.905Z,25.70
2018-09-21T08:25:25.811Z,25.80
2018-09-21T08:28:00.187Z,25.90
2018-09-21T08:30:35.409Z,26.00
2018-09-21T08:33:10.286Z,26.10
2018-09-21T08:35:45.226Z,26.20
2018-09-21T08:38:20.238Z,26.20
2018-09-21T08:40:55.163Z,26.30
2018-09-21T08:43:29.462Z,26.30
2018-09-21T08:46:05.033Z,26.40
2018-09-21T08:48:39.782Z,26.50
2018-09-21T08:51:14.160Z,26.60
2018-09-21T08:53:49.221Z,26.70
2018-09-21T08:56:24.058Z,26.80
2018-09-21T08:58:58.835Z,26.90
2018-09-21T09:01:33.469Z,27.00
2018-09-21T09:04:08.301Z,27.10
2018-09-21T09:06:42.616Z,27.30
2018-09-21T09:09:17.313Z,27.40
2018-09-21T09:11:51.890Z,27.50
2018-09-21T09:14:26.542Z,27.60
2018-09-21T09:17:01.467Z,27.80
2018-09-21T09:19:36.070Z,28.00
2018-09-21T09:22:11.257Z,28.20
2018-09-21T09:24:45.795Z,28.40
2018-09-21T09:27:20.575Z,28.60
2018-09-21T09:29:55.605Z,28.70
2018-09-21T09:32:30.253Z,28.80
2018-09-21T09:35:05.450Z,29.10
2018-09-21T09:37:40.243Z,29.20
2018-09-21T09:40:14.831Z,29.40
2018-09-21T09:42:49.037Z,29.60
2018-09-21T09:45:23.989Z,29.70
2018-09-21T09:47:59.213Z,29.90
2018-09-21T09:50:34.187Z,30.10
2018-09-21T09:53:08.703Z,30.20
2018-09-21T09:55:43.711Z,30.30
2018-09-21T09:58:18.080Z,30.50
2018-09-21T10:00:53.644Z,30.60
2018-09-21T10:03:28.015Z,30.80
2018-09-21T10:06:02.287Z,30.90
2018-09-21T10:08:36.514Z,31.00
2018-09-21T10:11:10.935Z,31.10
2018-09-21T10:13:45.906Z,31.10
2018-09-21T10:16:20.254Z,31.10
2018-09-21T10:18:54.918Z,31.10
2018-09-21T10:21:29.055Z,31.10
2018-09-21T10:24:03.636Z,31.10
2018-09-21T10:26:38.447Z,31.00
2018-09-21T10:29:12.869Z,30.90
2018-09-21T10:31:47.513Z,30.90
2018-09-21T10:34:22.314Z,30.70
2018-09-21T10:36:56.959Z,30.60
2018-09-21T10:39:31.608Z,30.40
2018-09-21T10:42:06.351Z,30.20
2018-09-21T10:44:41.260Z,30.10
2018-09-21T10:47:17.309Z,29.90
2018-09-21T10:49:51.599Z,29.80
2018-09-21T10:52:26.652Z,29.80
2018-09-21T10:55:01.034Z,29.70
2018-09-21T10:57:36.034Z,29.60
2018-09-21T11:00:11.387Z,29.50
2018-09-21T11:02:45.450Z,29.30
2018-09-21T11:05:19.712Z,29.20
2018-09-21T11:07:54.269Z,29.00
2018-09-21T11:10:28.918Z,28.80
2018-09-21T11:13:03.120Z,28.70
2018-09-21T11:15:38.166Z,28.60
2018-09-21T11:18:13.172Z,28.50
2018-09-21T11:20:47.877Z,28.40
2018-09-21T11:23:22.692Z,28.30
2018-09-21T11:25:57.557Z,28.20
2018-09-21T11:28:32.164Z,28.10
2018-09-21T11:31:06.854Z,28.00
2018-09-21T11:33:41.446Z,28.00
2018-09-21T11:36:16.317Z,28.00
2018-09-21T11:38:50.926Z,28.00
2018-09-21T11:41:25.776Z,27.90
2018-09-21T11:44:00.277Z,27.90
2018-09-21T11:46:35.195Z,27.90
2018-09-21T11:49:10.160Z,27.90
2018-09-21T11:51:44.717Z,27.90
2018-09-21T11:54:19.529Z,27.90
2018-09-21T11:56:54.649Z,27.90
2018-09-21T11:59:29.656Z,27.90
2018-09-21T12:02:04.314Z,27.90
2018-09-21T12:04:39.242Z,27.90
2018-09-21T12:07:14.117Z,27.80
2018-09-21T12:09:49.175Z,27.80
2018-09-21T12:12:24.059Z,27.80
2018-09-21T12:14:59.145Z,27.70
2018-09-21T12:17:33.902Z,27.80
2018-09-21T12:20:08.982Z,27.80
2018-09-21T12:22:44.198Z,27.80
2018-09-21T12:25:19.131Z,27.80
2018-09-21T12:27:54.005Z,27.80
2018-09-21T12:30:28.314Z,27.70
2018-09-21T12:33:03.372Z,27.70
2018-09-21T12:35:38.279Z,27.70
2018-09-21T12:38:12.909Z,27.60
2018-09-21T12:40:47.641Z,27.60
2018-09-21T12:43:22.221Z,27.60
2018-09-21T12:45:56.821Z,27.60
2018-09-21T12:48:31.565Z,27.50
2018-09-21T12:51:06.353Z,27.50
2018-09-21T12:53:41.354Z,27.50
2018-09-21T12:56:15.628Z,27.50
2018-09-21T12:58:50.543Z,27.50
2018-09-21T13:01:25.045Z,27.40
2018-09-21T13:03:59.603Z,27.40
2018-09-21T13:06:34.508Z,27.40
2018-09-21T13:09:09.423Z,27.40
2018-09-21T13:11:44.494Z,27.40
2018-09-21T13:14:19.547Z,27.40
2018-09-21T13:16:54.530Z,27.40
2018-09-21T13:19:28.661Z,27.40
2018-09-21T13:22:05.317Z,27.40
2018-09-21T13:24:40.077Z,27.40
2018-09-21T13:27:14.412Z,27.30
2018-09-21T13:29:49.100Z,27.30
2018-09-21T13:32:23.473Z,27.30
2018-09-21T13:34:58.111Z,27.30
2018-09-21T13:37:32.306Z,27.20
2018-09-21T13:40:07.302Z,27.20
2018-09-21T13:42:42.174Z,27.20
2018-09-21T13:45:16.912Z,27.20
2018-09-21T13:47:52.457Z,27.20
2018-09-21T13:50:26.770Z,27.20
2018-09-21T13:53:01.475Z,27.10
2018-09-21T13:55:36.110Z,27.10
2018-09-21T13:58:10.947Z,27.00
2018-09-21T14:00:45.663Z,27.00
2018-09-21T14:03:20.560Z,27.00
2018-09-21T14:05:55.154Z,26.90
2018-09-21T14:08:30.085Z,27.00
2018-09-21T14:11:04.989Z,26.90
2018-09-21T14:13:39.677Z,26.80
2018-09-21T14:16:14.044Z,26.80
2018-09-21T14:18:49.269Z,26.80
2018-09-21T14:21:24.332Z,26.80
2018-09-21T14:23:58.933Z,26.80
2018-09-21T14:26:33.778Z,26.80
2018-09-21T14:29:08.909Z,26.80
2018-09-21T14:31:43.980Z,26.80
2018-09-21T14:34:18.830Z,26.70
2018-09-21T14:36:53.582Z,26.70
2018-09-21T14:39:27.664Z,26.70
2018-09-21T14:42:01.941Z,26.70
2018-09-21T14:44:37.612Z,26.60
2018-09-21T14:47:12.332Z,26.60
2018-09-21T14:49:47.177Z,26.60
2018-09-21T14:52:21.786Z,26.50
2018-09-21T14:54:56.321Z,26.50
2018-09-21T14:57:31.238Z,26.40
2018-09-21T15:00:06.256Z,26.50
2018-09-21T15:02:40.446Z,26.40
2018-09-21T15:05:15.086Z,26.40
2018-09-21T15:07:49.746Z,26.40
2018-09-21T15:10:24.568Z,26.30
2018-09-21T15:12:59.287Z,26.30
2018-09-21T15:15:34.007Z,26.20
2018-09-21T15:18:08.454Z,26.20
2018-09-21T15:20:43.185Z,26.20
2018-09-21T15:23:17.649Z,26.10
2018-09-21T15:25:52.434Z,26.00
2018-09-21T15:28:27.130Z,25.90
2018-09-21T15:31:02.113Z,25.90
2018-09-21T15:33:36.923Z,25.80
2018-09-21T15:36:11.259Z,25.80
2018-09-21T15:38:46.418Z,25.70
2018-09-21T15:41:21.420Z,25.60
2018-09-21T15:43:56.527Z,25.60
2018-09-21T15:46:31.562Z,25.50
2018-09-21T15:49:06.678Z,25.50
2018-09-21T15:51:41.118Z,25.40
2018-09-21T15:54:15.852Z,25.40
2018-09-21T15:56:51.057Z,25.30
2018-09-21T15:59:26.225Z,25.30
2018-09-21T16:02:00.865Z,25.20
2018-09-21T16:04:35.222Z,25.20
2018-09-21T16:07:09.800Z,25.10
2018-09-21T16:09:44.292Z,25.10
2018-09-21T16:12:18.989Z,25.00
2018-09-21T16:14:53.650Z,25.00
2018-09-21T16:17:28.541Z,24.90
2018-09-21T16:20:02.977Z,24.90
2018-09-21T16:22:37.534Z,24.90
2018-09-21T16:25:12.974Z,24.70
2018-09-21T16:27:47.876Z,24.70
2018-09-21T16:30:22.738Z,24.70
2018-09-21T16:32:57.816Z,24.60
2018-09-21T16:35:32.458Z,24.60
2018-09-21T16:38:07.715Z,24.60
2018-09-21T16:40:42.396Z,24.50
2018-09-21T16:43:17.294Z,24.50
2018-09-21T16:45:52.374Z,24.40
2018-09-21T16:48:27.158Z,24.40
2018-09-21T16:51:02.326Z,24.40
2018-09-21T16:53:38.635Z,24.30
2018-09-21T16:56:14.121Z,24.30
2018-09-21T16:58:48.879Z,24.30
2018-09-21T17:01:24.090Z,24.20
2018-09-21T17:03:59.041Z,24.20
2018-09-21T17:06:34.616Z,24.20
2018-09-21T17:09:11.412Z,24.10
2018-09-21T17:11:46.971Z,24.10
2018-09-21T17:14:22.231Z,24.10
2018-09-21T17:16:56.782Z,24.10
2018-09-21T17:19:31.841Z,24.00
2018-09-21T17:22:06.373Z,24.00
2018-09-21T17:24:41.397Z,23.90
2018-09-21T17:27:15.805Z,23.90
2018-09-21T17:29:50.653Z,23.90
2018-09-21T17:32:24.928Z,23.90
2018-09-21T17:34:59.891Z,23.80
2018-09-21T17:37:35.069Z,23.70
2018-09-21T17:40:09.555Z,23.60
2018-09-21T17:42:44.066Z,23.50
2018-09-21T17:45:18.723Z,23.40
2018-09-21T17:47:53.689Z,23.30
2018-09-21T17:50:28.413Z,23.30
2018-09-21T17:53:03.244Z,23.20
2018-09-21T17:55:38.672Z,23.10
2018-09-21T17:58:14.026Z,23.10
2018-09-21T18:00:48.567Z,23.00
2018-09-21T18:03:23.622Z,23.00
2018-09-21T18:05:59.008Z,22.90
2018-09-21T18:08:33.668Z,22.80
2018-09-21T18:11:08.644Z,22.80
2018-09-21T18:13:43.681Z,22.80
2018-09-21T18:16:25.412Z,22.70
2018-09-21T18:19:00.301Z,22.70
2018-09-21T18:21:34.994Z,22.50
2018-09-21T18:24:10.486Z,22.50
2018-09-21T18:26:45.031Z,22.40
2018-09-21T18:29:20.141Z,22.30
2018-09-21T18:31:55.269Z,22.20
2018-09-21T18:34:29.757Z,22.20
2018-09-21T18:37:04.649Z,22.10
2018-09-21T18:39:39.242Z,22.00
2018-09-21T18:42:13.891Z,22.00
2018-09-21T18:44:48.697Z,22.00
2018-09-21T18:47:23.206Z,21.90
2018-09-21T18:49:58.047Z,21.90
2018-09-21T18:52:32.644Z,21.90
2018-09-21T18:55:07.494Z,21.90
2018-09-21T18:57:42.278Z,21.80
2018-09-21T19:00:17.158Z,21.80
2018-09-21T19:02:51.847Z,21.80
2018-09-21T19:05:29.246Z,21.70
2018-09-21T19:08:04.121Z,21.70
2018-09-21T19:10:39.201Z,21.60
2018-09-21T19:13:13.505Z,21.60
2018-09-21T19:15:48.663Z,21.50
2018-09-21T19:18:24.019Z,21.50
2018-09-21T19:20:59.081Z,21.30
2018-09-21T19:23:33.804Z,21.20
2018-09-21T19:26:14.997Z,21.10
2018-09-21T19:28:50.194Z,20.90
2018-09-21T19:31:25.789Z,20.70
2018-09-21T19:34:00.354Z,20.40
2018-09-21T19:36:34.673Z,20.10
2018-09-21T19:39:10.733Z,19.80
2018-09-21T19:41:45.447Z,19.50
2018-09-21T19:44:21.037Z,19.20
2018-09-21T19:46:56.169Z,18.80
2018-09-21T19:49:31.874Z,18.60
2018-09-21T19:52:06.763Z,18.30
2018-09-21T19:54:41.636Z,18.00
2018-09-21T19:57:16.181Z,17.70
2018-09-21T19:59:51.137Z,17.40
2018-09-21T20:02:25.479Z,17.30
2018-09-21T20:05:00.456Z,17.10
2018-09-21T20:07:35.184Z,16.90
2018-09-21T20:10:10.129Z,16.70
2018-09-21T20:12:44.840Z,16.50
2018-09-21T20:15:19.385Z,16.30
2018-09-21T20:17:53.714Z,16.10
2018-09-21T20:20:28.808Z,16.00
2018-09-21T20:23:03.878Z,15.80
2018-09-21T20:25:39.138Z,15.60
2018-09-21T20:28:14.071Z,15.50
2018-09-21T20:30:54.850Z,15.40
2018-09-21T20:33:30.933Z,15.40
2018-09-21T20:36:05.986Z,15.20
2018-09-21T20:38:40.245Z,15.20
2018-09-21T20:41:15.087Z,15.10
2018-09-21T20:43:49.919Z,15.10
2018-09-21T20:46:24.246Z,15.10
2018-09-21T20:48:59.251Z,15.00
2018-09-21T20:51:33.527Z,15.00
2018-09-21T20:54:08.321Z,14.90
2018-09-21T20:56:46.227Z,14.80
2018-09-21T20:59:21.251Z,14.70
2018-09-21T21:01:56.116Z,14.60
2018-09-21T21:04:30.691Z,14.60
2018-09-21T21:07:05.845Z,14.50
2018-09-21T21:09:40.889Z,14.50
2018-09-21T21:12:15.685Z,14.50
2018-09-21T21:14:50.445Z,14.50
2018-09-21T21:17:26.220Z,14.50
2018-09-21T21:20:01.455Z,14.50
2018-09-21T21:22:35.857Z,14.50
2018-09-21T21:25:10.605Z,14.50
2018-09-21T21:27:45.411Z,14.40
2018-09-21T21:30:20.226Z,14.40
2018-09-21T21:32:55.358Z,14.40
2018-09-21T21:35:30.331Z,14.40
2018-09-21T21:38:05.525Z,14.40
2018-09-21T21:40:40.548Z,14.40
2018-09-21T21:43:15.183Z,14.40
2018-09-21T21:45:50.342Z,14.40
2018-09-21T21:48:25.447Z,14.40
2018-09-21T21:51:00.673Z,14.50
2018-09-21T21:53:34.882Z,14.50
2018-09-21T21:56:09.340Z,14.50
2018-09-21T21:58:44.408Z,14.50
2018-09-21T22:01:30.485Z,14.50
2018-09-21T22:04:05.735Z,14.50
2018-09-21T22:06:41.059Z,14.50
2018-09-21T22:09:15.518Z,14.50
2018-09-21T22:11:55.902Z,14.50
2018-09-21T22:14:30.940Z,14.50
2018-09-21T22:17:06.065Z,14.40
2018-09-21T22:19:40.345Z,14.40
2018-09-21T22:22:15.147Z,14.50
2018-09-21T22:24:49.807Z,14.50
2018-09-21T22:27:24.434Z,14.50
2018-09-21T22:29:59.245Z,14.50
2018-09-21T22:32:33.761Z,14.50
2018-09-21T22:35:08.457Z,14.40
2018-09-21T22:37:43.109Z,14.50
2018-09-21T22:40:17.825Z,14.50
2018-09-21T22:42:52.356Z,14.50
2018-09-21T22:45:27.418Z,14.50
2018-09-21T22:48:02.328Z,14.50
2018-09-21T22:50:37.606Z,14.50
2018-09-21T22:53:12.481Z,14.50
2018-09-21T22:55:47.431Z,14.50
2018-09-21T22:58:22.375Z,14.50
2018-09-21T23:00:56.680Z,14.50
2018-09-21T23:03:32.181Z,14.50
2018-09-21T23:06:07.647Z,14.40
2018-09-21T23:08:41.788Z,14.50
2018-09-21T23:11:16.832Z,14.40
2018-09-21T23:13:51.689Z,14.40
2018-09-21T23:16:26.126Z,14.40
2018-09-21T23:19:00.333Z,14.40
2018-09-21T23:21:35.184Z,14.30
2018-09-21T23:24:10.194Z,14.30
2018-09-21T23:26:44.727Z,14.20
2018-09-21T23:29:19.330Z,14.20
2018-09-21T23:31:54.122Z,14.10
2018-09-21T23:34:29.064Z,14.10
2018-09-21T23:37:03.929Z,14.10
2018-09-21T23:39:38.578Z,14.10
2018-09-21T23:42:13.200Z,14.00
2018-09-21T23:44:48.030Z,14.00
2018-09-21T23:47:23.263Z,14.00
2018-09-21T23:49:58.193Z,14.00
2018-09-21T23:52:33.417Z,13.90
2018-09-21T23:55:07.999Z,13.90
2018-09-21T23:57:42.861Z,13.90
